Time,TemperatureF,DewpointF,PressureIn,WindDirection,WindDirectionDegrees,WindSpeedMPH,WindSpeedGustMPH,Humidity,HourlyPrecipIn,Conditions,Clouds,dailyrainin,SoftwareType,DateUTC
2013-02-24 00:10:00,36.0,36.0,-100.00,NW,313,8.0,11.0,100,0.00,,,0.00,,2013-02-24 05:10:00,
2013-02-24 00:42:00,36.0,36.0,-100.00,NW,313,8.0,11.0,100,0.00,,,0.00,,2013-02-24 05:42:00,
2013-02-24 00:50:00,36.0,36.0,-100.00,NW,326,6.0,11.0,100,0.00,,,0.00,,2013-02-24 05:50:00,
2013-02-24 00:52:00,36.0,36.0,-100.00,NW,313,8.0,11.0,100,0.00,,,0.00,,2013-02-24 05:52:00,
2013-02-24 01:02:00,36.0,36.0,-100.00,NW,313,8.0,11.0,100,0.00,,,0.00,,2013-02-24 06:02:00,
2013-02-24 01:21:00,36.0,36.0,-100.00,NW,326,6.0,11.0,100,0.00,,,0.00,,2013-02-24 06:21:00,
2013-02-24 01:30:00,36.0,36.0,-100.00,NNW,328,5.0,9.0,100,0.00,,,0.00,,2013-02-24 06:30:00,
2013-02-24 01:32:00,36.0,36.0,-100.00,NW,326,6.0,11.0,100,0.00,,,0.00,,2013-02-24 06:32:00,
2013-02-24 01:42:00,36.0,36.0,-100.00,NW,326,6.0,11.0,100,0.00,,,0.00,,2013-02-24 06:42:00,
2013-02-24 02:01:00,36.0,36.0,-100.00,NNW,328,5.0,9.0,100,0.00,,,0.00,,2013-02-24 07:01:00,
2013-02-24 02:12:00,36.0,36.0,-100.00,NNW,328,5.0,9.0,100,0.00,,,0.00,,2013-02-24 07:12:00,
2013-02-24 02:22:00,36.0,36.0,-100.00,NNW,328,5.0,9.0,100,0.00,,,0.00,,2013-02-24 07:22:00,
2013-02-24 02:42:00,36.0,36.0,-100.00,NNW,333,7.0,10.0,100,0.00,,,0.00,,2013-02-24 07:42:00,
2013-02-24 02:52:00,36.0,36.0,-100.00,NNW,333,7.0,10.0,100,0.00,,,0.00,,2013-02-24 07:52:00,
2013-02-24 03:01:00,36.0,36.0,-100.00,NNW,333,7.0,10.0,100,0.00,,,0.00,,2013-02-24 08:01:00,
2013-02-24 03:11:00,36.0,36.0,-100.00,NNW,333,7.0,10.0,100,0.00,,,0.00,,2013-02-24 08:11:00,
2013-02-24 03:42:00,36.0,36.0,-100.00,NNW,336,6.0,9.0,100,0.00,,,0.00,,2013-02-24 08:42:00,
2013-02-24 03:54:00,36.0,36.0,-100.00,NNW,336,5.0,9.0,100,0.00,,,0.00,,2013-02-24 08:54:00,
2013-02-24 04:02:00,36.0,36.0,-100.00,NNW,336,5.0,9.0,100,0.00,,,0.00,,2013-02-24 09:02:00,
2013-02-24 04:11:00,36.0,36.0,-100.00,NNW,336,5.0,9.0,100,0.00,,,0.00,,2013-02-24 09:11:00,
2013-02-24 04:22:00,36.0,36.0,-100.00,NNW,337,5.0,9.0,100,0.00,,,0.00,,2013-02-24 09:22:00,
2013-02-24 04:32:00,36.0,36.0,-100.00,NNW,336,6.0,9.0,100,0.00,,,0.00,,2013-02-24 09:32:00,
2013-02-24 04:42:00,36.0,36.0,-100.00,NNW,336,6.0,9.0,100,0.00,,,0.00,,2013-02-24 09:42:00,
2013-02-24 04:52:00,36.0,36.0,-100.00,NNW,336,6.0,9.0,100,0.00,,,0.00,,2013-02-24 09:52:00,
2013-02-24 05:01:00,36.0,36.0,-100.00,NNW,336,6.0,9.0,100,0.00,,,0.00,,2013-02-24 10:01:00,
2013-02-24 12:22:00,46.0,24.0,-100.00,NNW,332,9.0,19.0,42,0.00,,,0.00,,2013-02-24 17:22:00,
2013-02-24 12:32:00,46.0,24.0,-100.00,NNW,332,9.0,19.0,42,0.00,,,0.00,,2013-02-24 17:32:00,
2013-02-24 12:42:00,46.0,25.0,-100.00,NNW,332,10.0,24.0,43,0.00,,,0.00,,2013-02-24 17:42:00,
2013-02-24 12:52:00,46.0,25.0,-100.00,NNW,332,10.0,24.0,43,0.00,,,0.00,,2013-02-24 17:52:00,
2013-02-24 13:02:00,46.0,26.0,-100.00,NNW,328,11.0,20.0,44,0.00,,,0.00,,2013-02-24 18:02:00,
2013-02-24 13:11:00,46.0,26.0,-100.00,NNW,328,11.0,20.0,44,0.00,,,0.00,,2013-02-24 18:11:00,
2013-02-24 13:22:00,47.0,25.0,-100.00,NNW,330,8.0,15.0,41,0.00,,,0.00,,2013-02-24 18:22:00,
2013-02-24 13:32:00,47.0,25.0,-100.00,NNW,330,8.0,15.0,41,0.00,,,0.00,,2013-02-24 18:32:00,
2013-02-24 13:42:00,47.0,25.0,-100.00,NNW,330,8.0,15.0,41,0.00,,,0.00,,2013-02-24 18:42:00,
2013-02-24 13:52:00,48.0,23.0,-100.00,NNW,333,9.0,20.0,36,0.00,,,0.00,,2013-02-24 18:52:00,
2013-02-24 14:01:00,48.0,23.0,-100.00,NNW,333,9.0,20.0,36,0.00,,,0.00,,2013-02-24 19:01:00,
2013-02-24 14:12:00,48.0,23.0,-100.00,NNW,332,9.0,19.0,37,0.00,,,0.00,,2013-02-24 19:12:00,
2013-02-24 14:22:00,49.0,23.0,-100.00,NNW,333,10.0,22.0,36,0.00,,,0.00,,2013-02-24 19:22:00,
2013-02-24 14:32:00,49.0,23.0,-100.00,NNW,333,10.0,22.0,36,0.00,,,0.00,,2013-02-24 19:32:00,
2013-02-24 14:42:00,48.0,22.0,-100.00,NNW,329,10.0,19.0,34,0.00,,,0.00,,2013-02-24 19:42:00,
2013-02-24 14:52:00,48.0,22.0,-100.00,NNW,329,10.0,19.0,34,0.00,,,0.00,,2013-02-24 19:52:00,
2013-02-24 15:02:00,49.0,21.0,-100.00,NNW,330,10.0,20.0,33,0.00,,,0.00,,2013-02-24 20:02:00,
2013-02-24 15:11:00,49.0,21.0,-100.00,NNW,330,10.0,20.0,33,0.00,,,0.00,,2013-02-24 20:11:00,
2013-02-24 15:22:00,49.0,21.0,-100.00,NNW,330,10.0,20.0,33,0.00,,,0.00,,2013-02-24 20:22:00,
2013-02-24 16:21:00,44.0,21.0,-100.00,NNW,336,8.0,17.0,38,0.00,,,0.00,,2013-02-24 21:21:00,
2013-02-24 16:32:00,44.0,21.0,-100.00,NNW,336,8.0,17.0,38,0.00,,,0.00,,2013-02-24 21:32:00,
2013-02-24 16:42:00,44.0,21.0,-100.00,NNW,336,8.0,17.0,38,0.00,,,0.00,,2013-02-24 21:42:00,
2013-02-24 16:52:00,44.0,22.0,-100.00,NNW,330,12.0,22.0,43,0.00,,,0.00,,2013-02-24 21:52:00,
2013-02-24 17:01:00,41.0,24.0,-100.00,NNW,330,12.0,25.0,49,0.00,,,0.00,,2013-02-24 22:01:00,
2013-02-24 17:11:00,41.0,24.0,-100.00,NNW,330,12.0,25.0,49,0.00,,,0.00,,2013-02-24 22:11:00,
2013-02-24 17:22:00,39.0,23.0,-100.00,NNW,333,11.0,22.0,52,0.00,,,0.00,,2013-02-24 22:22:00,
2013-02-24 17:32:00,39.0,23.0,-100.00,NNW,333,11.0,22.0,52,0.00,,,0.00,,2013-02-24 22:32:00,
2013-02-24 17:42:00,37.0,22.0,-100.00,NNW,332,11.0,24.0,55,0.00,,,0.00,,2013-02-24 22:42:00,
2013-02-24 17:52:00,37.0,22.0,-100.00,NNW,332,11.0,24.0,55,0.00,,,0.00,,2013-02-24 22:52:00,
2013-02-24 18:02:00,37.0,22.0,-100.00,NNW,332,11.0,24.0,55,0.00,,,0.00,,2013-02-24 23:02:00,
2013-02-24 19:50:00,32.0,20.0,-100.00,NNW,336,11.0,26.0,61,0.00,,,0.00,,2013-02-25 00:50:00,
2013-02-24 20:21:00,32.0,20.0,-100.00,NNW,336,11.0,26.0,61,0.00,,,0.00,,2013-02-25 01:21:00,
2013-02-24 20:32:00,32.0,20.0,-100.00,NNW,336,11.0,26.0,61,0.00,,,0.00,,2013-02-25 01:32:00,
2013-02-24 20:42:00,32.0,20.0,-100.00,NNW,336,11.0,26.0,61,0.00,,,0.00,,2013-02-25 01:42:00,
2013-02-24 23:10:00,29.0,17.0,-100.00,NNW,339,4.0,9.0,60,0.00,,,0.00,,2013-02-25 04:10:00,
2013-02-24 23:42:00,29.0,17.0,-100.00,NNW,339,4.0,9.0,60,0.00,,,0.00,,2013-02-25 04:42:00,
2013-02-24 23:52:00,29.0,17.0,-100.00,NNW,339,4.0,9.0,60,0.00,,,0.00,,2013-02-25 04:52:00,